sensor_id;sensor_type;location;lat;lon;timestamp;P1;durP1;ratioP1;P2;durP2;ratioP2
23682;SDS011;24897;53.514;10.482;2023-05-10T00:01:47;42.73;;;39.70;;
23682;SDS011;24897;53.514;10.482;2023-05-10T00:04:31;42.63;;;39.30;;
23682;SDS011;24897;53.514;10.482;2023-05-10T00:07:16;43.07;;;40.03;;
23682;SDS011;24897;53.514;10.482;2023-05-10T00:10:01;41.23;;;37.93;;
23682;SDS011;24897;53.514;10.482;2023-05-10T00:12:45;42.80;;;39.73;;
23682;SDS011;24897;53.514;10.482;2023-05-10T00:15:30;43.00;;;40.10;;
23682;SDS011;24897;53.514;10.482;2023-05-10T00:18:14;42.03;;;38.90;;
23682;SDS011;24897;53.514;10.482;2023-05-10T00:20:58;41.87;;;39.07;;
23682;SDS011;24897;53.514;10.482;2023-05-10T00:23:42;42.87;;;39.40;;
23682;SDS011;24897;53.514;10.482;2023-05-10T00:26:26;44.17;;;40.97;;
23682;SDS011;24897;53.514;10.482;2023-05-10T00:29:10;41.73;;;38.83;;
23682;SDS011;24897;53.514;10.482;2023-05-10T00:31:55;42.23;;;39.13;;
23682;SDS011;24897;53.514;10.482;2023-05-10T00:34:46;42.37;;;39.20;;
23682;SDS011;24897;53.514;10.482;2023-05-10T00:37:30;43.43;;;40.27;;
23682;SDS011;24897;53.514;10.482;2023-05-10T00:40:14;43.70;;;40.37;;
23682;SDS011;24897;53.514;10.482;2023-05-10T00:42:58;44.93;;;41.77;;
23682;SDS011;24897;53.514;10.482;2023-05-10T00:45:44;41.93;;;38.80;;
23682;SDS011;24897;53.514;10.482;2023-05-10T00:48:28;43.13;;;40.07;;
23682;SDS011;24897;53.514;10.482;2023-05-10T00:51:13;43.47;;;40.47;;
23682;SDS011;24897;53.514;10.482;2023-05-10T00:53:58;43.50;;;40.00;;
23682;SDS011;24897;53.514;10.482;2023-05-10T00:56:42;42.23;;;39.03;;
23682;SDS011;24897;53.514;10.482;2023-05-10T00:59:32;43.67;;;40.30;;
23682;SDS011;24897;53.514;10.482;2023-05-10T01:02:16;43.60;;;40.33;;
23682;SDS011;24897;53.514;10.482;2023-05-10T01:05:02;41.20;;;38.30;;
23682;SDS011;24897;53.514;10.482;2023-05-10T01:07:49;43.77;;;40.70;;
23682;SDS011;24897;53.514;10.482;2023-05-10T01:10:34;42.67;;;39.30;;
23682;SDS011;24897;53.514;10.482;2023-05-10T01:13:23;43.03;;;39.67;;
23682;SDS011;24897;53.514;10.482;2023-05-10T01:16:13;42.57;;;39.10;;
23682;SDS011;24897;53.514;10.482;2023-05-10T01:18:57;41.60;;;38.10;;
23682;SDS011;24897;53.514;10.482;2023-05-10T01:21:49;37.37;;;34.40;;
23682;SDS011;24897;53.514;10.482;2023-05-10T01:27:37;34.80;;;32.20;;
23682;SDS011;24897;53.514;10.482;2023-05-10T01:33:52;31.77;;;29.43;;
23682;SDS011;24897;53.514;10.482;2023-05-10T01:37:02;32.97;;;30.47;;
23682;SDS011;24897;53.514;10.482;2023-05-10T01:43:04;26.80;;;24.83;;
23682;SDS011;24897;53.514;10.482;2023-05-10T01:46:01;28.50;;;26.13;;
23682;SDS011;24897;53.514;10.482;2023-05-10T01:48:54;26.30;;;23.90;;
23682;SDS011;24897;53.514;10.482;2023-05-10T01:51:44;21.53;;;19.43;;
23682;SDS011;24897;53.514;10.482;2023-05-10T01:54:35;19.53;;;17.63;;
23682;SDS011;24897;53.514;10.482;2023-05-10T01:57:23;19.97;;;18.10;;
23682;SDS011;24897;53.514;10.482;2023-05-10T02:00:11;19.50;;;17.70;;
23682;SDS011;24897;53.514;10.482;2023-05-10T02:02:57;19.67;;;17.77;;
23682;SDS011;24897;53.514;10.482;2023-05-10T02:05:43;19.67;;;17.87;;
23682;SDS011;24897;53.514;10.482;2023-05-10T02:08:32;19.83;;;18.13;;
23682;SDS011;24897;53.514;10.482;2023-05-10T02:11:18;19.70;;;17.80;;
23682;SDS011;24897;53.514;10.482;2023-05-10T02:14:05;20.90;;;19.00;;
23682;SDS011;24897;53.514;10.482;2023-05-10T02:16:53;20.60;;;18.57;;
23682;SDS011;24897;53.514;10.482;2023-05-10T02:19:40;19.50;;;17.73;;
23682;SDS011;24897;53.514;10.482;2023-05-10T02:22:26;20.50;;;18.33;;
23682;SDS011;24897;53.514;10.482;2023-05-10T02:25:11;19.80;;;17.97;;
23682;SDS011;24897;53.514;10.482;2023-05-10T02:27:57;19.90;;;17.93;;
23682;SDS011;24897;53.514;10.482;2023-05-10T02:30:46;20.50;;;18.53;;
23682;SDS011;24897;53.514;10.482;2023-05-10T02:33:31;19.70;;;17.97;;
23682;SDS011;24897;53.514;10.482;2023-05-10T02:36:16;19.47;;;17.87;;
23682;SDS011;24897;53.514;10.482;2023-05-10T02:39:01;19.70;;;18.07;;
23682;SDS011;24897;53.514;10.482;2023-05-10T02:41:46;20.30;;;18.60;;
23682;SDS011;24897;53.514;10.482;2023-05-10T02:44:31;20.80;;;18.77;;
23682;SDS011;24897;53.514;10.482;2023-05-10T02:47:20;20.87;;;18.87;;
23682;SDS011;24897;53.514;10.482;2023-05-10T02:50:05;19.83;;;18.23;;
23682;SDS011;24897;53.514;10.482;2023-05-10T02:52:51;21.13;;;19.00;;
23682;SDS011;24897;53.514;10.482;2023-05-10T02:55:38;20.20;;;18.47;;
23682;SDS011;24897;53.514;10.482;2023-05-10T02:58:25;20.13;;;18.37;;
23682;SDS011;24897;53.514;10.482;2023-05-10T03:01:10;20.90;;;18.80;;
23682;SDS011;24897;53.514;10.482;2023-05-10T03:03:54;21.03;;;19.23;;
23682;SDS011;24897;53.514;10.482;2023-05-10T03:06:38;20.33;;;18.50;;
23682;SDS011;24897;53.514;10.482;2023-05-10T03:09:22;20.63;;;18.73;;
23682;SDS011;24897;53.514;10.482;2023-05-10T03:12:57;21.23;;;19.17;;
23682;SDS011;24897;53.514;10.482;2023-05-10T03:15:37;20.83;;;19.00;;
23682;SDS011;24897;53.514;10.482;2023-05-10T03:18:33;21.30;;;19.30;;
23682;SDS011;24897;53.514;10.482;2023-05-10T03:21:26;21.10;;;19.10;;
23682;SDS011;24897;53.514;10.482;2023-05-10T03:24:15;20.53;;;18.63;;
23682;SDS011;24897;53.514;10.482;2023-05-10T03:27:02;21.07;;;19.23;;
23682;SDS011;24897;53.514;10.482;2023-05-10T03:29:48;21.57;;;19.33;;
23682;SDS011;24897;53.514;10.482;2023-05-10T03:32:34;20.93;;;18.90;;
23682;SDS011;24897;53.514;10.482;2023-05-10T03:35:19;21.30;;;19.10;;
23682;SDS011;24897;53.514;10.482;2023-05-10T03:38:03;21.10;;;19.03;;
23682;SDS011;24897;53.514;10.482;2023-05-10T03:40:47;19.90;;;18.20;;
23682;SDS011;24897;53.514;10.482;2023-05-10T03:43:31;20.60;;;18.80;;
23682;SDS011;24897;53.514;10.482;2023-05-10T03:46:15;21.40;;;19.27;;
23682;SDS011;24897;53.514;10.482;2023-05-10T03:48:59;21.17;;;18.97;;
23682;SDS011;24897;53.514;10.482;2023-05-10T03:51:44;20.17;;;18.37;;
23682;SDS011;24897;53.514;10.482;2023-05-10T03:54:28;20.40;;;18.60;;
23682;SDS011;24897;53.514;10.482;2023-05-10T03:57:12;20.37;;;18.27;;
23682;SDS011;24897;53.514;10.482;2023-05-10T03:59:56;20.80;;;18.90;;
23682;SDS011;24897;53.514;10.482;2023-05-10T04:02:40;19.83;;;17.90;;
23682;SDS011;24897;53.514;10.482;2023-05-10T04:05:25;20.73;;;18.80;;
23682;SDS011;24897;53.514;10.482;2023-05-10T04:08:09;20.70;;;18.70;;
23682;SDS011;24897;53.514;10.482;2023-05-10T04:10:54;19.87;;;18.07;;
23682;SDS011;24897;53.514;10.482;2023-05-10T04:13:38;20.03;;;18.27;;
23682;SDS011;24897;53.514;10.482;2023-05-10T04:16:22;20.33;;;18.43;;
23682;SDS011;24897;53.514;10.482;2023-05-10T04:19:06;20.40;;;18.57;;
23682;SDS011;24897;53.514;10.482;2023-05-10T04:21:51;19.67;;;17.97;;
23682;SDS011;24897;53.514;10.482;2023-05-10T04:24:34;20.10;;;18.40;;
23682;SDS011;24897;53.514;10.482;2023-05-10T04:27:18;20.67;;;18.93;;
23682;SDS011;24897;53.514;10.482;2023-05-10T04:30:03;20.20;;;18.40;;
23682;SDS011;24897;53.514;10.482;2023-05-10T04:32:48;19.90;;;18.10;;
23682;SDS011;24897;53.514;10.482;2023-05-10T04:35:33;19.53;;;17.73;;
23682;SDS011;24897;53.514;10.482;2023-05-10T04:38:18;20.73;;;18.83;;
23682;SDS011;24897;53.514;10.482;2023-05-10T04:41:06;20.80;;;18.70;;
23682;SDS011;24897;53.514;10.482;2023-05-10T04:43:51;20.30;;;18.57;;
23682;SDS011;24897;53.514;10.482;2023-05-10T04:46:35;20.73;;;18.90;;
23682;SDS011;24897;53.514;10.482;2023-05-10T04:49:20;20.33;;;18.53;;
23682;SDS011;24897;53.514;10.482;2023-05-10T04:52:04;20.17;;;18.47;;
23682;SDS011;24897;53.514;10.482;2023-05-10T04:54:48;20.87;;;18.87;;
23682;SDS011;24897;53.514;10.482;2023-05-10T04:57:32;20.60;;;18.80;;
23682;SDS011;24897;53.514;10.482;2023-05-10T05:00:20;20.90;;;18.93;;
23682;SDS011;24897;53.514;10.482;2023-05-10T05:03:04;20.87;;;19.07;;
23682;SDS011;24897;53.514;10.482;2023-05-10T05:05:49;21.37;;;19.37;;
23682;SDS011;24897;53.514;10.482;2023-05-10T05:08:34;21.03;;;19.13;;
23682;SDS011;24897;53.514;10.482;2023-05-10T05:11:18;21.10;;;19.07;;
23682;SDS011;24897;53.514;10.482;2023-05-10T05:14:02;20.13;;;18.30;;
23682;SDS011;24897;53.514;10.482;2023-05-10T05:16:46;20.33;;;18.63;;
23682;SDS011;24897;53.514;10.482;2023-05-10T05:19:30;20.77;;;18.97;;
23682;SDS011;24897;53.514;10.482;2023-05-10T05:22:15;20.97;;;19.07;;
23682;SDS011;24897;53.514;10.482;2023-05-10T05:24:59;20.40;;;18.50;;
23682;SDS011;24897;53.514;10.482;2023-05-10T05:27:44;20.53;;;18.63;;
23682;SDS011;24897;53.514;10.482;2023-05-10T05:30:28;20.07;;;18.23;;
23682;SDS011;24897;53.514;10.482;2023-05-10T05:33:15;20.93;;;19.00;;
23682;SDS011;24897;53.514;10.482;2023-05-10T05:36:05;20.50;;;18.70;;
23682;SDS011;24897;53.514;10.482;2023-05-10T05:38:50;20.70;;;19.00;;
23682;SDS011;24897;53.514;10.482;2023-05-10T05:41:34;20.40;;;18.70;;
23682;SDS011;24897;53.514;10.482;2023-05-10T05:44:18;20.57;;;18.87;;
23682;SDS011;24897;53.514;10.482;2023-05-10T05:47:03;21.00;;;19.30;;
23682;SDS011;24897;53.514;10.482;2023-05-10T05:49:47;21.17;;;19.00;;
23682;SDS011;24897;53.514;10.482;2023-05-10T05:52:31;20.27;;;18.53;;
23682;SDS011;24897;53.514;10.482;2023-05-10T05:55:16;20.20;;;18.50;;
23682;SDS011;24897;53.514;10.482;2023-05-10T05:58:01;20.80;;;19.00;;
23682;SDS011;24897;53.514;10.482;2023-05-10T06:00:45;20.63;;;18.73;;
23682;SDS011;24897;53.514;10.482;2023-05-10T06:03:29;19.80;;;18.13;;
23682;SDS011;24897;53.514;10.482;2023-05-10T06:06:13;20.40;;;18.60;;
23682;SDS011;24897;53.514;10.482;2023-05-10T06:08:57;20.07;;;18.47;;
23682;SDS011;24897;53.514;10.482;2023-05-10T06:11:41;19.90;;;18.17;;
23682;SDS011;24897;53.514;10.482;2023-05-10T06:14:26;20.67;;;18.87;;
23682;SDS011;24897;53.514;10.482;2023-05-10T06:17:11;20.57;;;18.77;;
23682;SDS011;24897;53.514;10.482;2023-05-10T06:19:55;20.73;;;18.60;;
23682;SDS011;24897;53.514;10.482;2023-05-10T06:22:39;20.07;;;18.37;;
23682;SDS011;24897;53.514;10.482;2023-05-10T06:25:24;20.90;;;19.10;;
23682;SDS011;24897;53.514;10.482;2023-05-10T06:28:09;20.97;;;18.73;;
23682;SDS011;24897;53.514;10.482;2023-05-10T06:30:53;20.23;;;18.43;;
23682;SDS011;24897;53.514;10.482;2023-05-10T06:33:37;20.37;;;18.63;;
23682;SDS011;24897;53.514;10.482;2023-05-10T06:36:21;20.63;;;18.93;;
23682;SDS011;24897;53.514;10.482;2023-05-10T06:39:05;19.50;;;17.93;;
23682;SDS011;24897;53.514;10.482;2023-05-10T06:41:50;20.07;;;18.47;;
23682;SDS011;24897;53.514;10.482;2023-05-10T06:44:34;20.37;;;18.57;;
23682;SDS011;24897;53.514;10.482;2023-05-10T06:47:18;20.77;;;18.80;;
23682;SDS011;24897;53.514;10.482;2023-05-10T06:50:02;20.47;;;18.73;;
23682;SDS011;24897;53.514;10.482;2023-05-10T06:52:47;20.40;;;18.67;;
23682;SDS011;24897;53.514;10.482;2023-05-10T06:55:31;20.43;;;18.57;;
23682;SDS011;24897;53.514;10.482;2023-05-10T06:58:15;19.90;;;18.20;;
23682;SDS011;24897;53.514;10.482;2023-05-10T07:01:03;20.77;;;19.00;;
23682;SDS011;24897;53.514;10.482;2023-05-10T07:03:48;20.30;;;18.47;;
23682;SDS011;24897;53.514;10.482;2023-05-10T07:06:32;21.93;;;19.60;;
23682;SDS011;24897;53.514;10.482;2023-05-10T07:09:17;20.73;;;18.57;;
23682;SDS011;24897;53.514;10.482;2023-05-10T07:12:01;20.77;;;18.93;;
23682;SDS011;24897;53.514;10.482;2023-05-10T07:14:45;20.07;;;18.37;;
23682;SDS011;24897;53.514;10.482;2023-05-10T07:17:30;20.42;;;18.73;;
23682;SDS011;24897;53.514;10.482;2023-05-10T07:20:14;20.40;;;18.63;;
23682;SDS011;24897;53.514;10.482;2023-05-10T07:22:59;19.30;;;17.77;;
23682;SDS011;24897;53.514;10.482;2023-05-10T07:25:46;21.00;;;19.17;;
23682;SDS011;24897;53.514;10.482;2023-05-10T07:28:31;20.50;;;18.57;;
23682;SDS011;24897;53.514;10.482;2023-05-10T07:31:15;20.37;;;18.50;;
23682;SDS011;24897;53.514;10.482;2023-05-10T07:33:59;20.37;;;18.47;;
23682;SDS011;24897;53.514;10.482;2023-05-10T07:36:43;20.70;;;19.00;;
23682;SDS011;24897;53.514;10.482;2023-05-10T07:39:27;20.57;;;18.60;;
23682;SDS011;24897;53.514;10.482;2023-05-10T07:42:20;20.40;;;18.60;;
23682;SDS011;24897;53.514;10.482;2023-05-10T07:45:04;19.93;;;18.13;;
23682;SDS011;24897;53.514;10.482;2023-05-10T07:47:49;20.50;;;18.80;;
23682;SDS011;24897;53.514;10.482;2023-05-10T07:50:36;19.97;;;18.27;;
23682;SDS011;24897;53.514;10.482;2023-05-10T07:53:23;20.50;;;18.70;;
23682;SDS011;24897;53.514;10.482;2023-05-10T07:56:28;20.50;;;18.70;;
23682;SDS011;24897;53.514;10.482;2023-05-10T07:59:15;20.10;;;18.20;;
23682;SDS011;24897;53.514;10.482;2023-05-10T08:02:00;20.97;;;19.00;;
23682;SDS011;24897;53.514;10.482;2023-05-10T08:04:44;20.77;;;18.97;;
23682;SDS011;24897;53.514;10.482;2023-05-10T08:07:31;20.50;;;18.80;;
23682;SDS011;24897;53.514;10.482;2023-05-10T08:10:16;20.27;;;18.53;;
23682;SDS011;24897;53.514;10.482;2023-05-10T08:13:00;19.93;;;18.23;;
23682;SDS011;24897;53.514;10.482;2023-05-10T08:15:44;20.03;;;18.30;;
23682;SDS011;24897;53.514;10.482;2023-05-10T08:18:28;20.17;;;18.47;;
23682;SDS011;24897;53.514;10.482;2023-05-10T08:21:13;19.83;;;18.13;;
23682;SDS011;24897;53.514;10.482;2023-05-10T08:23:58;20.00;;;18.20;;
23682;SDS011;24897;53.514;10.482;2023-05-10T08:26:42;19.93;;;18.27;;
23682;SDS011;24897;53.514;10.482;2023-05-10T08:29:26;20.37;;;18.57;;
23682;SDS011;24897;53.514;10.482;2023-05-10T08:32:10;19.20;;;17.60;;
23682;SDS011;24897;53.514;10.482;2023-05-10T08:34:54;19.80;;;18.20;;
23682;SDS011;24897;53.514;10.482;2023-05-10T08:37:39;19.67;;;18.07;;
23682;SDS011;24897;53.514;10.482;2023-05-10T08:40:23;19.73;;;18.13;;
23682;SDS011;24897;53.514;10.482;2023-05-10T08:43:10;19.80;;;18.10;;
23682;SDS011;24897;53.514;10.482;2023-05-10T08:46:02;19.67;;;18.07;;
23682;SDS011;24897;53.514;10.482;2023-05-10T08:48:49;20.63;;;18.93;;
23682;SDS011;24897;53.514;10.482;2023-05-10T08:51:40;20.23;;;18.20;;
23682;SDS011;24897;53.514;10.482;2023-05-10T08:54:27;20.23;;;18.33;;
23682;SDS011;24897;53.514;10.482;2023-05-10T08:57:11;19.83;;;18.23;;
23682;SDS011;24897;53.514;10.482;2023-05-10T08:59:55;20.03;;;18.23;;
23682;SDS011;24897;53.514;10.482;2023-05-10T09:02:40;19.60;;;17.90;;
23682;SDS011;24897;53.514;10.482;2023-05-10T09:05:26;20.17;;;18.27;;
23682;SDS011;24897;53.514;10.482;2023-05-10T09:08:11;19.23;;;17.63;;
23682;SDS011;24897;53.514;10.482;2023-05-10T09:10:56;20.93;;;18.90;;
23682;SDS011;24897;53.514;10.482;2023-05-10T09:13:41;19.43;;;17.83;;
23682;SDS011;24897;53.514;10.482;2023-05-10T09:16:26;20.40;;;18.17;;
23682;SDS011;24897;53.514;10.482;2023-05-10T09:19:14;19.33;;;17.67;;
23682;SDS011;24897;53.514;10.482;2023-05-10T09:21:58;19.33;;;17.70;;
23682;SDS011;24897;53.514;10.482;2023-05-10T09:24:43;19.67;;;17.90;;
23682;SDS011;24897;53.514;10.482;2023-05-10T09:27:28;20.30;;;18.37;;
23682;SDS011;24897;53.514;10.482;2023-05-10T09:30:17;20.60;;;18.63;;
23682;SDS011;24897;53.514;10.482;2023-05-10T09:33:13;20.07;;;18.33;;
23682;SDS011;24897;53.514;10.482;2023-05-10T09:36:07;20.00;;;18.30;;
23682;SDS011;24897;53.514;10.482;2023-05-10T09:38:52;19.77;;;18.07;;
23682;SDS011;24897;53.514;10.482;2023-05-10T09:41:36;20.30;;;18.50;;
23682;SDS011;24897;53.514;10.482;2023-05-10T09:44:20;20.20;;;18.50;;
23682;SDS011;24897;53.514;10.482;2023-05-10T09:47:05;20.10;;;18.40;;
23682;SDS011;24897;53.514;10.482;2023-05-10T09:49:50;20.53;;;18.80;;
23682;SDS011;24897;53.514;10.482;2023-05-10T09:52:48;20.60;;;18.87;;
23682;SDS011;24897;53.514;10.482;2023-05-10T09:58:19;20.80;;;19.07;;
23682;SDS011;24897;53.514;10.482;2023-05-10T10:01:03;21.40;;;19.60;;
23682;SDS011;24897;53.514;10.482;2023-05-10T10:03:48;20.77;;;19.07;;
23682;SDS011;24897;53.514;10.482;2023-05-10T10:06:37;20.07;;;18.27;;
23682;SDS011;24897;53.514;10.482;2023-05-10T10:09:22;20.50;;;18.80;;
23682;SDS011;24897;53.514;10.482;2023-05-10T10:12:06;20.03;;;18.27;;
23682;SDS011;24897;53.514;10.482;2023-05-10T10:14:50;20.63;;;18.93;;
23682;SDS011;24897;53.514;10.482;2023-05-10T10:17:35;20.53;;;18.73;;
23682;SDS011;24897;53.514;10.482;2023-05-10T10:20:22;20.97;;;19.13;;
23682;SDS011;24897;53.514;10.482;2023-05-10T10:23:07;25.43;;;18.80;;
23682;SDS011;24897;53.514;10.482;2023-05-10T10:25:52;20.43;;;18.73;;
23682;SDS011;24897;53.514;10.482;2023-05-10T10:34:26;21.27;;;19.33;;
23682;SDS011;24897;53.514;10.482;2023-05-10T10:37:12;20.90;;;19.10;;
23682;SDS011;24897;53.514;10.482;2023-05-10T10:39:56;21.83;;;19.63;;
23682;SDS011;24897;53.514;10.482;2023-05-10T10:42:43;22.13;;;20.23;;
23682;SDS011;24897;53.514;10.482;2023-05-10T10:45:29;22.27;;;19.87;;
23682;SDS011;24897;53.514;10.482;2023-05-10T10:48:20;22.40;;;20.37;;
23682;SDS011;24897;53.514;10.482;2023-05-10T10:51:07;23.33;;;21.03;;
23682;SDS011;24897;53.514;10.482;2023-05-10T10:53:52;22.27;;;20.17;;
23682;SDS011;24897;53.514;10.482;2023-05-10T10:56:37;22.80;;;20.70;;
23682;SDS011;24897;53.514;10.482;2023-05-10T10:59:28;23.70;;;21.30;;
23682;SDS011;24897;53.514;10.482;2023-05-10T11:05:34;23.77;;;21.57;;
23682;SDS011;24897;53.514;10.482;2023-05-10T11:11:13;30.57;;;27.37;;
23682;SDS011;24897;53.514;10.482;2023-05-10T11:14:02;37.27;;;31.50;;
23682;SDS011;24897;53.514;10.482;2023-05-10T11:16:48;27.50;;;25.00;;
23682;SDS011;24897;53.514;10.482;2023-05-10T11:19:33;30.63;;;27.83;;
23682;SDS011;24897;53.514;10.482;2023-05-10T11:22:17;34.50;;;31.40;;
23682;SDS011;24897;53.514;10.482;2023-05-10T11:25:02;40.40;;;36.73;;
23682;SDS011;24897;53.514;10.482;2023-05-10T11:27:47;38.17;;;34.57;;
23682;SDS011;24897;53.514;10.482;2023-05-10T11:30:31;41.57;;;37.53;;
23682;SDS011;24897;53.514;10.482;2023-05-10T11:33:19;39.50;;;35.70;;
23682;SDS011;24897;53.514;10.482;2023-05-10T11:36:04;41.77;;;37.67;;
23682;SDS011;24897;53.514;10.482;2023-05-10T11:38:48;44.70;;;40.33;;
23682;SDS011;24897;53.514;10.482;2023-05-10T11:41:33;46.07;;;41.33;;
23682;SDS011;24897;53.514;10.482;2023-05-10T11:44:17;43.97;;;39.50;;
23682;SDS011;24897;53.514;10.482;2023-05-10T11:47:02;43.53;;;38.73;;
23682;SDS011;24897;53.514;10.482;2023-05-10T11:49:47;45.77;;;41.13;;
23682;SDS011;24897;53.514;10.482;2023-05-10T11:52:35;43.30;;;39.00;;
23682;SDS011;24897;53.514;10.482;2023-05-10T11:55:21;44.70;;;40.00;;
23682;SDS011;24897;53.514;10.482;2023-05-10T11:58:06;44.47;;;39.83;;
23682;SDS011;24897;53.514;10.482;2023-05-10T12:00:50;44.63;;;39.87;;
23682;SDS011;24897;53.514;10.482;2023-05-10T12:03:35;43.63;;;39.03;;
23682;SDS011;24897;53.514;10.482;2023-05-10T12:06:19;42.73;;;38.40;;
23682;SDS011;24897;53.514;10.482;2023-05-10T12:09:07;43.73;;;39.20;;
23682;SDS011;24897;53.514;10.482;2023-05-10T12:11:55;42.27;;;37.80;;
23682;SDS011;24897;53.514;10.482;2023-05-10T12:14:40;75.70;;;58.67;;
23682;SDS011;24897;53.514;10.482;2023-05-10T12:17:27;55.27;;;47.90;;
23682;SDS011;24897;53.514;10.482;2023-05-10T12:20:12;43.90;;;39.30;;
23682;SDS011;24897;53.514;10.482;2023-05-10T12:22:58;43.97;;;39.17;;
23682;SDS011;24897;53.514;10.482;2023-05-10T12:25:45;44.20;;;39.60;;
23682;SDS011;24897;53.514;10.482;2023-05-10T12:28:30;44.73;;;40.03;;
23682;SDS011;24897;53.514;10.482;2023-05-10T12:31:15;45.17;;;39.63;;
23682;SDS011;24897;53.514;10.482;2023-05-10T12:33:59;42.77;;;38.07;;
23682;SDS011;24897;53.514;10.482;2023-05-10T12:36:43;40.03;;;35.83;;
23682;SDS011;24897;53.514;10.482;2023-05-10T12:39:41;37.13;;;33.27;;
23682;SDS011;24897;53.514;10.482;2023-05-10T12:42:26;39.33;;;35.30;;
23682;SDS011;24897;53.514;10.482;2023-05-10T12:45:11;40.87;;;36.67;;
23682;SDS011;24897;53.514;10.482;2023-05-10T12:47:55;41.73;;;37.43;;
23682;SDS011;24897;53.514;10.482;2023-05-10T12:50:40;44.60;;;39.87;;
23682;SDS011;24897;53.514;10.482;2023-05-10T12:53:24;39.47;;;35.30;;
23682;SDS011;24897;53.514;10.482;2023-05-10T12:56:08;42.43;;;37.93;;
23682;SDS011;24897;53.514;10.482;2023-05-10T12:58:53;40.30;;;36.03;;
23682;SDS011;24897;53.514;10.482;2023-05-10T13:01:36;43.20;;;38.63;;
23682;SDS011;24897;53.514;10.482;2023-05-10T13:04:21;43.10;;;38.47;;
23682;SDS011;24897;53.514;10.482;2023-05-10T13:07:06;44.07;;;39.43;;
23682;SDS011;24897;53.514;10.482;2023-05-10T13:09:50;44.80;;;40.13;;
23682;SDS011;24897;53.514;10.482;2023-05-10T13:12:34;44.10;;;38.80;;
23682;SDS011;24897;53.514;10.482;2023-05-10T13:15:18;42.27;;;37.87;;
23682;SDS011;24897;53.514;10.482;2023-05-10T13:18:03;44.03;;;39.53;;
23682;SDS011;24897;53.514;10.482;2023-05-10T13:20:47;45.03;;;40.37;;
23682;SDS011;24897;53.514;10.482;2023-05-10T13:23:33;43.93;;;39.23;;
23682;SDS011;24897;53.514;10.482;2023-05-10T13:26:18;46.47;;;41.70;;
23682;SDS011;24897;53.514;10.482;2023-05-10T13:29:03;46.37;;;41.57;;
23682;SDS011;24897;53.514;10.482;2023-05-10T13:31:47;45.13;;;40.57;;
23682;SDS011;24897;53.514;10.482;2023-05-10T13:34:31;46.40;;;41.70;;
23682;SDS011;24897;53.514;10.482;2023-05-10T13:37:15;45.80;;;41.10;;
23682;SDS011;24897;53.514;10.482;2023-05-10T13:40:00;40.93;;;36.93;;
23682;SDS011;24897;53.514;10.482;2023-05-10T13:42:45;41.93;;;37.83;;
23682;SDS011;24897;53.514;10.482;2023-05-10T13:45:29;40.80;;;36.80;;
23682;SDS011;24897;53.514;10.482;2023-05-10T13:48:13;39.33;;;35.63;;
23682;SDS011;24897;53.514;10.482;2023-05-10T13:50:58;36.67;;;33.17;;
23682;SDS011;24897;53.514;10.482;2023-05-10T13:53:42;41.33;;;37.33;;
23682;SDS011;24897;53.514;10.482;2023-05-10T13:56:26;36.53;;;33.13;;
23682;SDS011;24897;53.514;10.482;2023-05-10T13:59:10;36.83;;;33.47;;
23682;SDS011;24897;53.514;10.482;2023-05-10T14:01:55;33.47;;;30.57;;
23682;SDS011;24897;53.514;10.482;2023-05-10T14:04:39;34.73;;;31.73;;
23682;SDS011;24897;53.514;10.482;2023-05-10T14:07:23;32.80;;;30.00;;
23682;SDS011;24897;53.514;10.482;2023-05-10T14:10:07;33.43;;;30.53;;
23682;SDS011;24897;53.514;10.482;2023-05-10T14:12:52;36.37;;;33.23;;
23682;SDS011;24897;53.514;10.482;2023-05-10T14:15:36;35.60;;;32.50;;
23682;SDS011;24897;53.514;10.482;2023-05-10T14:18:20;31.33;;;28.53;;
23682;SDS011;24897;53.514;10.482;2023-05-10T14:21:04;34.40;;;31.47;;
23682;SDS011;24897;53.514;10.482;2023-05-10T14:23:49;35.13;;;32.10;;
23682;SDS011;24897;53.514;10.482;2023-05-10T14:26:33;34.40;;;31.30;;
23682;SDS011;24897;53.514;10.482;2023-05-10T14:29:20;34.50;;;31.60;;
23682;SDS011;24897;53.514;10.482;2023-05-10T14:32:05;33.30;;;30.40;;
23682;SDS011;24897;53.514;10.482;2023-05-10T14:34:50;32.93;;;30.00;;
23682;SDS011;24897;53.514;10.482;2023-05-10T14:37:34;31.60;;;28.80;;
23682;SDS011;24897;53.514;10.482;2023-05-10T14:40:18;30.90;;;28.40;;
23682;SDS011;24897;53.514;10.482;2023-05-10T14:43:02;30.07;;;27.67;;
23682;SDS011;24897;53.514;10.482;2023-05-10T14:45:46;29.63;;;27.23;;
23682;SDS011;24897;53.514;10.482;2023-05-10T14:48:31;26.40;;;24.20;;
23682;SDS011;24897;53.514;10.482;2023-05-10T14:51:15;25.97;;;23.87;;
23682;SDS011;24897;53.514;10.482;2023-05-10T14:53:59;26.97;;;24.77;;
23682;SDS011;24897;53.514;10.482;2023-05-10T14:56:44;27.73;;;25.53;;
23682;SDS011;24897;53.514;10.482;2023-05-10T14:59:28;29.93;;;27.43;;
23682;SDS011;24897;53.514;10.482;2023-05-10T15:02:13;31.27;;;28.67;;
23682;SDS011;24897;53.514;10.482;2023-05-10T15:04:57;29.53;;;27.03;;
23682;SDS011;24897;53.514;10.482;2023-05-10T15:07:41;30.20;;;27.70;;
23682;SDS011;24897;53.514;10.482;2023-05-10T15:10:27;30.30;;;27.80;;
23682;SDS011;24897;53.514;10.482;2023-05-10T15:13:11;31.33;;;28.83;;
23682;SDS011;24897;53.514;10.482;2023-05-10T15:15:55;30.70;;;28.10;;
23682;SDS011;24897;53.514;10.482;2023-05-10T15:18:39;28.20;;;25.90;;
23682;SDS011;24897;53.514;10.482;2023-05-10T15:21:23;31.20;;;28.70;;
23682;SDS011;24897;53.514;10.482;2023-05-10T15:24:07;30.20;;;27.60;;
23682;SDS011;24897;53.514;10.482;2023-05-10T15:26:52;32.37;;;29.67;;
23682;SDS011;24897;53.514;10.482;2023-05-10T15:29:36;30.33;;;27.83;;
23682;SDS011;24897;53.514;10.482;2023-05-10T15:32:20;31.00;;;28.47;;
23682;SDS011;24897;53.514;10.482;2023-05-10T15:35:04;29.47;;;26.97;;
23682;SDS011;24897;53.514;10.482;2023-05-10T15:37:49;29.53;;;27.03;;
23682;SDS011;24897;53.514;10.482;2023-05-10T15:40:33;29.60;;;27.10;;
23682;SDS011;24897;53.514;10.482;2023-05-10T15:43:17;30.23;;;27.70;;
23682;SDS011;24897;53.514;10.482;2023-05-10T15:46:02;30.73;;;28.13;;
23682;SDS011;24897;53.514;10.482;2023-05-10T15:48:46;29.53;;;27.07;;
23682;SDS011;24897;53.514;10.482;2023-05-10T15:51:30;28.30;;;26.00;;
23682;SDS011;24897;53.514;10.482;2023-05-10T15:54:16;27.73;;;25.53;;
23682;SDS011;24897;53.514;10.482;2023-05-10T15:57:00;25.50;;;23.30;;
23682;SDS011;24897;53.514;10.482;2023-05-10T15:59:44;27.67;;;25.47;;
23682;SDS011;24897;53.514;10.482;2023-05-10T16:02:28;28.73;;;26.33;;
23682;SDS011;24897;53.514;10.482;2023-05-10T16:05:12;27.80;;;25.40;;
23682;SDS011;24897;53.514;10.482;2023-05-10T16:07:56;28.73;;;26.33;;
23682;SDS011;24897;53.514;10.482;2023-05-10T16:10:41;29.20;;;26.80;;
23682;SDS011;24897;53.514;10.482;2023-05-10T16:13:25;28.63;;;26.23;;
23682;SDS011;24897;53.514;10.482;2023-05-10T16:16:09;31.00;;;28.40;;
23682;SDS011;24897;53.514;10.482;2023-05-10T16:18:55;32.13;;;29.20;;